createdAt,value
2023-05-12T00:00:29.535Z,56.50
2023-05-12T00:02:58.948Z,56.60
2023-05-12T00:05:29.678Z,56.50
2023-05-12T00:07:58.903Z,56.50
2023-05-12T00:10:29.406Z,56.60
2023-05-12T00:12:58.579Z,56.60
2023-05-12T00:15:27.757Z,56.60
2023-05-12T00:17:58.634Z,56.40
2023-05-12T00:20:27.930Z,56.60
2023-05-12T00:22:57.158Z,56.40
2023-05-12T00:25:26.282Z,56.40
2023-05-12T00:27:55.425Z,56.40
2023-05-12T00:30:24.597Z,56.40
2023-05-12T00:32:53.985Z,56.50
2023-05-12T00:35:24.746Z,57.00
2023-05-12T00:37:54.006Z,56.50
2023-05-12T00:40:23.144Z,56.60
2023-05-12T00:42:52.277Z,56.50
2023-05-12T00:45:22.061Z,56.50
2023-05-12T00:47:52.988Z,56.50
2023-05-12T00:50:24.143Z,56.60
2023-05-12T00:52:54.046Z,56.80
2023-05-12T00:55:23.264Z,56.40
2023-05-12T00:57:52.516Z,56.60
2023-05-12T01:00:22.164Z,56.40
2023-05-12T01:02:52.413Z,56.40
2023-05-12T01:05:23.288Z,56.50
2023-05-12T01:07:53.015Z,56.40
2023-05-12T01:10:23.646Z,56.50
2023-05-12T01:12:53.075Z,56.40
2023-05-12T01:15:22.371Z,56.50
2023-05-12T01:17:58.816Z,56.50
2023-05-12T01:20:30.610Z,56.40
2023-05-12T01:23:00.553Z,56.50
2023-05-12T01:25:33.983Z,56.40
2023-05-12T01:28:06.703Z,56.40
2023-05-12T01:30:39.315Z,56.40
2023-05-12T01:33:08.807Z,56.50
2023-05-12T01:35:38.231Z,56.50
2023-05-12T01:38:07.581Z,56.60
2023-05-12T01:40:40.044Z,56.50
2023-05-12T01:43:11.735Z,56.60
2023-05-12T01:45:40.907Z,56.50
2023-05-12T01:48:10.208Z,56.60
2023-05-12T01:50:39.370Z,56.60
2023-05-12T01:53:13.710Z,56.50
2023-05-12T01:55:42.978Z,56.70
2023-05-12T01:58:13.689Z,56.70
2023-05-12T02:00:43.050Z,56.50
2023-05-12T02:03:17.010Z,56.50
2023-05-12T02:05:46.256Z,56.60
2023-05-12T02:08:15.373Z,56.50
2023-05-12T02:10:44.630Z,56.40
2023-05-12T02:13:15.521Z,56.50
2023-05-12T02:15:44.894Z,56.60
2023-05-12T02:18:14.075Z,56.50
2023-05-12T02:20:44.242Z,56.50
2023-05-12T02:23:13.551Z,56.50
2023-05-12T02:25:42.707Z,56.40
2023-05-12T02:28:11.962Z,56.40
2023-05-12T02:30:49.005Z,56.40
2023-05-12T02:33:19.247Z,56.50
2023-05-12T02:35:49.931Z,56.40
2023-05-12T02:38:19.188Z,56.40
2023-05-12T02:40:48.721Z,56.50
2023-05-12T02:43:18.121Z,56.40
2023-05-12T02:45:49.039Z,56.50
2023-05-12T02:48:18.314Z,56.40
2023-05-12T02:50:47.515Z,56.40
2023-05-12T02:53:16.901Z,56.40
2023-05-12T02:55:46.144Z,56.50
2023-05-12T02:58:15.960Z,56.40
2023-05-12T03:00:45.484Z,56.40
2023-05-12T03:03:16.361Z,56.50
2023-05-12T03:05:45.755Z,56.40
2023-05-12T03:08:14.952Z,56.40
2023-05-12T03:10:44.750Z,56.50
2023-05-12T03:13:13.965Z,56.60
2023-05-12T03:15:43.496Z,56.50
2023-05-12T03:18:13.424Z,56.40
2023-05-12T03:20:44.008Z,56.50
2023-05-12T03:23:13.267Z,56.40
2023-05-12T03:25:42.388Z,56.50
2023-05-12T03:28:11.643Z,56.40
2023-05-12T03:30:40.878Z,56.50
2023-05-12T03:33:10.104Z,56.50
2023-05-12T03:35:39.287Z,56.50
2023-05-12T03:38:09.915Z,56.50
2023-05-12T03:40:39.086Z,56.50
2023-05-12T03:43:08.210Z,56.40
2023-05-12T03:45:37.414Z,56.40
2023-05-12T03:48:07.283Z,56.40
2023-05-12T03:50:36.778Z,56.50
2023-05-12T03:53:06.037Z,56.40
2023-05-12T03:55:38.823Z,56.40
2023-05-12T03:58:08.053Z,56.40
2023-05-12T04:00:37.200Z,56.50
2023-05-12T04:03:06.625Z,56.50
2023-05-12T04:05:37.995Z,56.50
2023-05-12T04:08:07.370Z,56.40
2023-05-12T04:10:44.738Z,56.50
2023-05-12T04:13:14.753Z,56.50
2023-05-12T04:15:44.004Z,56.60
2023-05-12T04:18:14.639Z,56.70
2023-05-12T04:20:43.998Z,56.40
2023-05-12T04:23:15.327Z,56.50
2023-05-12T04:25:46.205Z,56.40
2023-05-12T04:28:15.468Z,56.30
2023-05-12T04:30:44.727Z,56.10
2023-05-12T04:33:14.090Z,56.10
2023-05-12T04:35:43.715Z,56.10
2023-05-12T04:38:14.967Z,56.40
2023-05-12T04:40:45.607Z,56.20
2023-05-12T04:45:47.048Z,56.40
2023-05-12T04:48:17.383Z,56.50
2023-05-12T04:50:46.602Z,56.60
2023-05-12T04:53:16.268Z,56.40
2023-05-12T04:55:46.894Z,56.50
2023-05-12T04:58:17.446Z,56.80
2023-05-12T05:00:46.741Z,56.90
2023-05-12T05:03:17.253Z,56.90
2023-05-12T05:05:46.556Z,56.90
2023-05-12T05:08:16.548Z,57.10
2023-05-12T05:10:47.177Z,57.10
2023-05-12T05:13:16.852Z,57.20
2023-05-12T05:15:53.013Z,57.30
2023-05-12T05:18:24.221Z,57.00
2023-05-12T05:20:58.592Z,57.10
2023-05-12T05:23:28.574Z,57.10
2023-05-12T05:25:59.472Z,57.20
2023-05-12T05:28:28.938Z,57.00
2023-05-12T05:30:58.231Z,56.60
2023-05-12T05:33:27.689Z,56.60
2023-05-12T05:35:57.365Z,57.00
2023-05-12T05:38:26.675Z,57.00
2023-05-12T05:40:56.133Z,56.80
2023-05-12T05:43:28.235Z,56.80
2023-05-12T05:45:58.384Z,56.80
2023-05-12T05:48:27.811Z,56.60
2023-05-12T05:50:57.401Z,57.10
2023-05-12T05:53:27.872Z,57.40
2023-05-12T05:55:57.606Z,57.00
2023-05-12T05:58:28.323Z,57.10
2023-05-12T06:01:00.489Z,56.90
2023-05-12T06:03:29.957Z,57.00
2023-05-12T06:05:59.662Z,57.10
2023-05-12T06:08:28.827Z,57.20
2023-05-12T06:10:58.024Z,57.10
2023-05-12T06:13:28.750Z,57.00
2023-05-12T06:15:57.957Z,57.10
2023-05-12T06:18:27.434Z,56.60
2023-05-12T06:20:56.610Z,56.60
2023-05-12T06:23:25.899Z,56.90
2023-05-12T06:25:55.082Z,56.80
2023-05-12T06:28:24.291Z,56.70
2023-05-12T06:30:55.706Z,56.90
2023-05-12T06:33:24.988Z,56.70
2023-05-12T06:35:54.184Z,56.70
2023-05-12T06:38:23.370Z,56.60
2023-05-12T06:40:52.602Z,56.20
2023-05-12T06:43:21.749Z,56.10
2023-05-12T06:45:51.241Z,56.10
2023-05-12T06:48:21.905Z,56.00
2023-05-12T06:50:51.087Z,56.10
2023-05-12T06:53:21.405Z,56.00
2023-05-12T06:55:53.839Z,56.10
2023-05-12T06:58:22.966Z,56.50
2023-05-12T07:00:52.134Z,56.40
2023-05-12T07:03:22.757Z,56.50
2023-05-12T07:05:52.302Z,56.50
2023-05-12T07:08:21.478Z,56.60
2023-05-12T07:10:50.867Z,56.50
2023-05-12T07:13:20.140Z,56.50
2023-05-12T07:15:49.421Z,56.50
2023-05-12T07:18:18.603Z,56.50
2023-05-12T07:20:49.294Z,56.50
2023-05-12T07:23:18.560Z,56.60
2023-05-12T07:25:47.691Z,56.60
2023-05-12T07:28:16.937Z,56.30
2023-05-12T07:30:46.311Z,56.40
2023-05-12T07:33:15.496Z,56.40
2023-05-12T07:35:44.874Z,56.40
2023-05-12T07:38:16.167Z,56.40
2023-05-12T07:40:45.874Z,56.20
2023-05-12T07:43:15.162Z,56.30
2023-05-12T07:46:42.439Z,57.50
2023-05-12T07:49:11.811Z,56.70
2023-05-12T07:51:41.146Z,56.70
2023-05-12T07:56:39.537Z,66.10
2023-05-12T07:59:08.895Z,57.00
2023-05-12T08:01:38.458Z,57.10
2023-05-12T08:04:09.310Z,57.10
2023-05-12T08:06:38.734Z,57.30
2023-05-12T08:09:08.396Z,57.30
2023-05-12T08:11:37.812Z,57.30
2023-05-12T08:14:07.298Z,57.20
2023-05-12T08:16:36.942Z,57.30
2023-05-12T08:19:06.323Z,57.20
2023-05-12T08:21:37.481Z,57.30
2023-05-12T08:24:07.242Z,57.30
2023-05-12T08:26:36.795Z,57.20
2023-05-12T08:29:08.886Z,56.90
2023-05-12T08:31:40.630Z,57.20
2023-05-12T08:34:11.250Z,57.00
2023-05-12T08:36:42.718Z,57.00
2023-05-12T08:39:12.767Z,56.90
2023-05-12T08:41:46.392Z,57.00
2023-05-12T08:44:17.229Z,56.90
2023-05-12T08:46:47.268Z,56.70
2023-05-12T08:49:22.019Z,56.40
2023-05-12T08:51:58.093Z,56.40
2023-05-12T08:54:29.593Z,56.40
2023-05-12T08:59:31.477Z,56.70
2023-05-12T09:02:04.538Z,56.40
2023-05-12T09:04:34.149Z,56.60
2023-05-12T09:07:06.393Z,56.70
2023-05-12T09:09:37.441Z,56.80
2023-05-12T09:12:11.885Z,56.70
2023-05-12T09:14:43.694Z,56.70
2023-05-12T09:17:14.178Z,56.50
2023-05-12T09:19:43.728Z,56.70
2023-05-12T09:22:15.503Z,56.60
2023-05-12T09:24:45.187Z,56.20
2023-05-12T09:27:14.889Z,56.40
2023-05-12T09:29:59.265Z,56.30
2023-05-12T09:32:33.378Z,56.30
2023-05-12T09:35:08.115Z,56.00
2023-05-12T09:37:40.372Z,56.40
2023-05-12T09:40:11.629Z,56.40
2023-05-12T09:42:43.669Z,56.60
2023-05-12T09:45:16.041Z,56.70
2023-05-12T09:47:45.685Z,56.40
2023-05-12T09:50:15.167Z,56.70
2023-05-12T09:52:45.909Z,56.70
2023-05-12T09:55:15.189Z,56.60
2023-05-12T09:57:45.911Z,56.50
2023-05-12T10:00:33.183Z,56.50
2023-05-12T10:03:13.080Z,56.40
2023-05-12T10:05:49.476Z,56.30
2023-05-12T10:08:25.541Z,56.30
2023-05-12T10:10:57.759Z,56.60
2023-05-12T10:13:27.588Z,56.30
2023-05-12T10:15:58.355Z,56.60
2023-05-12T10:18:27.610Z,56.50
2023-05-12T10:20:59.380Z,56.40
2023-05-12T10:23:30.465Z,56.60
2023-05-12T10:26:02.427Z,56.60
2023-05-12T10:28:31.691Z,56.60
2023-05-12T10:31:01.324Z,56.40
2023-05-12T10:33:30.645Z,56.50
2023-05-12T10:35:59.934Z,56.50
2023-05-12T10:38:37.695Z,56.30
2023-05-12T10:41:08.811Z,56.20
2023-05-12T10:43:43.749Z,56.40
2023-05-12T10:46:18.856Z,56.40
2023-05-12T10:48:56.484Z,56.30
2023-05-12T10:51:28.614Z,56.40
2023-05-12T10:54:01.287Z,56.50
2023-05-12T10:56:32.413Z,56.40
2023-05-12T10:59:14.714Z,56.20
2023-05-12T11:01:46.450Z,56.50
2023-05-12T11:04:20.401Z,56.50
2023-05-12T11:07:01.252Z,56.70
2023-05-12T11:09:32.764Z,56.70
2023-05-12T11:12:02.917Z,56.30
2023-05-12T11:14:33.315Z,56.60
2023-05-12T11:17:02.737Z,56.90
2023-05-12T11:19:31.977Z,57.50
2023-05-12T11:22:07.492Z,57.30
2023-05-12T11:24:40.040Z,57.70
2023-05-12T11:27:14.554Z,58.40
2023-05-12T11:29:45.226Z,59.20
2023-05-12T11:32:16.833Z,59.70
2023-05-12T11:34:47.355Z,59.90
2023-05-12T11:37:21.496Z,60.00
2023-05-12T11:39:53.236Z,59.80
2023-05-12T11:42:25.074Z,60.10
2023-05-12T11:44:55.730Z,60.30
2023-05-12T11:47:24.966Z,60.70
2023-05-12T11:49:56.397Z,60.90
2023-05-12T11:52:28.759Z,60.70
2023-05-12T11:55:01.957Z,59.30
2023-05-12T11:57:32.417Z,60.70
2023-05-12T12:00:03.703Z,60.60
2023-05-12T12:02:50.682Z,60.60
2023-05-12T12:05:21.975Z,61.20
2023-05-12T12:07:53.627Z,61.60
2023-05-12T12:10:24.463Z,61.90
2023-05-12T12:12:54.644Z,62.10
2023-05-12T12:15:23.931Z,63.00
2023-05-12T12:17:53.259Z,62.10
2023-05-12T12:22:52.476Z,61.90
2023-05-12T12:25:23.523Z,62.60
2023-05-12T12:27:53.235Z,62.00
2023-05-12T12:30:25.500Z,62.50
2023-05-12T12:32:55.002Z,62.70
2023-05-12T12:35:31.069Z,62.70
2023-05-12T12:38:06.080Z,62.90
2023-05-12T12:40:36.749Z,62.80
2023-05-12T12:43:06.510Z,62.80
2023-05-12T12:45:35.780Z,62.90
2023-05-12T12:48:09.270Z,63.10
2023-05-12T12:50:38.762Z,63.00
2023-05-12T12:53:11.709Z,63.00
2023-05-12T12:55:48.945Z,63.20
2023-05-12T12:58:26.868Z,63.40
2023-05-12T13:00:56.099Z,63.40
2023-05-12T13:03:26.032Z,63.40
2023-05-12T13:05:55.402Z,63.40
2023-05-12T13:08:24.540Z,63.60
2023-05-12T13:11:00.573Z,63.60
2023-05-12T13:13:32.018Z,63.50
2023-05-12T13:16:13.031Z,63.60
2023-05-12T13:18:42.755Z,63.80
2023-05-12T13:21:12.353Z,63.40
2023-05-12T13:23:41.757Z,63.70
2023-05-12T13:26:12.477Z,63.30
2023-05-12T13:28:44.459Z,63.50
2023-05-12T13:31:14.344Z,63.40
2023-05-12T13:33:43.604Z,63.50
2023-05-12T13:36:12.809Z,62.90
2023-05-12T13:38:41.939Z,63.00
2023-05-12T13:41:12.863Z,64.00
2023-05-12T13:43:45.367Z,64.50
2023-05-12T13:46:14.709Z,63.60
2023-05-12T13:51:16.372Z,62.70
2023-05-12T13:53:45.563Z,62.80
2023-05-12T13:56:20.472Z,97.50
2023-05-12T14:01:24.012Z,97.80
2023-05-12T14:06:22.604Z,96.90
2023-05-12T14:08:52.089Z,98.80
2023-05-12T14:11:23.131Z,99.10
2023-05-12T14:13:52.646Z,97.10
2023-05-12T14:16:21.793Z,66.30
2023-05-12T14:18:50.989Z,66.90
2023-05-12T14:21:21.110Z,98.90
2023-05-12T14:23:51.326Z,67.80
2023-05-12T14:26:21.688Z,66.80
2023-05-12T14:28:52.495Z,99.30
2023-05-12T14:33:52.358Z,99.40
2023-05-12T14:36:21.665Z,66.90
2023-05-12T14:38:50.822Z,67.50
2023-05-12T14:41:21.761Z,67.20
2023-05-12T14:43:52.397Z,99.50
2023-05-12T14:46:39.224Z,66.70
2023-05-12T14:49:11.368Z,64.70
2023-05-12T14:51:40.642Z,63.60
2023-05-12T14:54:21.949Z,62.40
2023-05-12T14:56:54.387Z,62.50
2023-05-12T14:59:23.632Z,62.10
2023-05-12T15:01:54.386Z,62.20
2023-05-12T15:04:23.862Z,62.20
2023-05-12T15:06:52.965Z,61.80
2023-05-12T15:09:22.188Z,61.80
2023-05-12T15:11:51.743Z,62.20
2023-05-12T15:14:21.253Z,62.60
2023-05-12T15:16:50.799Z,63.60
2023-05-12T15:19:21.913Z,63.60
2023-05-12T15:21:51.376Z,63.70
2023-05-12T15:24:20.917Z,63.90
2023-05-12T15:26:50.810Z,64.00
2023-05-12T15:29:20.195Z,64.00
2023-05-12T15:31:49.572Z,64.00
2023-05-12T15:34:20.407Z,64.10
2023-05-12T15:36:50.981Z,64.20
2023-05-12T15:39:21.828Z,64.20
2023-05-12T15:41:51.872Z,64.00
2023-05-12T15:44:21.179Z,64.10
2023-05-12T15:46:51.455Z,64.10
2023-05-12T15:49:22.459Z,64.10
2023-05-12T15:51:51.725Z,64.10
2023-05-12T15:54:21.754Z,64.10
2023-05-12T15:56:51.322Z,64.10
2023-05-12T15:59:20.805Z,64.00
2023-05-12T16:01:50.143Z,64.10
2023-05-12T16:04:19.863Z,64.00
2023-05-12T16:06:51.033Z,64.00
2023-05-12T16:09:20.689Z,64.00
2023-05-12T16:11:50.810Z,64.00
2023-05-12T16:14:20.097Z,64.10
2023-05-12T16:16:49.883Z,63.90
2023-05-12T16:19:19.880Z,63.20
2023-05-12T16:21:50.966Z,62.80
2023-05-12T16:24:20.361Z,62.50
2023-05-12T16:26:49.614Z,62.40
2023-05-12T16:29:18.979Z,63.10
2023-05-12T16:31:48.190Z,62.10
2023-05-12T16:34:18.241Z,61.90
2023-05-12T16:36:47.996Z,61.70
2023-05-12T16:39:19.275Z,61.30
2023-05-12T16:41:48.446Z,61.30
2023-05-12T16:44:17.814Z,61.60
2023-05-12T16:46:47.231Z,61.50
2023-05-12T16:49:16.651Z,61.10
2023-05-12T16:51:46.240Z,61.40
2023-05-12T16:54:15.529Z,61.10
2023-05-12T16:56:46.353Z,60.90
2023-05-12T16:59:16.687Z,61.10
2023-05-12T17:01:46.298Z,61.30
2023-05-12T17:04:15.772Z,61.20
2023-05-12T17:06:45.118Z,61.60
2023-05-12T17:09:14.413Z,61.50
2023-05-12T17:11:43.805Z,61.50
2023-05-12T17:14:14.888Z,61.60
2023-05-12T17:16:45.406Z,61.30
2023-05-12T17:19:15.134Z,61.10
2023-05-12T17:21:45.016Z,61.10
2023-05-12T17:24:14.653Z,61.20
2023-05-12T17:26:44.326Z,61.00
2023-05-12T17:29:15.181Z,61.10
2023-05-12T17:31:44.728Z,61.00
2023-05-12T17:34:18.525Z,61.10
2023-05-12T17:36:47.707Z,61.40
2023-05-12T17:39:16.954Z,61.30
2023-05-12T17:41:47.886Z,61.30
2023-05-12T17:44:18.644Z,61.30
2023-05-12T17:46:47.987Z,61.10
2023-05-12T17:49:17.202Z,60.80
2023-05-12T17:51:47.155Z,60.80
2023-05-12T17:54:16.345Z,60.70
2023-05-12T17:56:45.684Z,60.90
2023-05-12T17:59:15.133Z,60.80
2023-05-12T18:01:45.921Z,61.10
2023-05-12T18:04:15.268Z,61.40
2023-05-12T18:06:44.866Z,61.80
2023-05-12T18:09:14.134Z,61.80
2023-05-12T18:11:44.031Z,60.80
2023-05-12T18:14:13.700Z,60.60
2023-05-12T18:16:53.104Z,60.40
2023-05-12T18:19:23.570Z,60.50
2023-05-12T18:21:53.107Z,60.60
2023-05-12T18:24:22.866Z,60.80
2023-05-12T18:26:52.074Z,61.00
2023-05-12T18:29:21.540Z,61.10
2023-05-12T18:31:52.485Z,61.10
2023-05-12T18:34:22.436Z,60.80
2023-05-12T18:36:52.042Z,61.20
2023-05-12T18:39:21.660Z,61.10
2023-05-12T18:41:51.258Z,61.00
2023-05-12T18:44:20.722Z,60.80
2023-05-12T18:46:51.601Z,60.70
2023-05-12T18:49:20.953Z,60.60
2023-05-12T18:51:50.400Z,60.70
2023-05-12T18:54:19.881Z,60.70
2023-05-12T18:56:50.931Z,60.70
2023-05-12T18:59:20.503Z,60.70
2023-05-12T19:01:49.814Z,60.70
2023-05-12T19:04:22.156Z,60.70
2023-05-12T19:06:51.572Z,60.50
2023-05-12T19:09:20.892Z,60.50
2023-05-12T19:11:50.280Z,60.40
2023-05-12T19:14:20.433Z,60.50
2023-05-12T19:16:50.020Z,60.60
2023-05-12T19:19:20.817Z,60.50
2023-05-12T19:21:50.226Z,60.70
2023-05-12T19:24:19.755Z,60.60
2023-05-12T19:26:49.150Z,60.70
2023-05-12T19:29:18.507Z,60.60
2023-05-12T19:31:47.918Z,60.50
2023-05-12T19:34:17.504Z,60.40
2023-05-12T19:36:48.729Z,60.40
2023-05-12T19:39:17.986Z,60.40
2023-05-12T19:41:47.551Z,60.40
2023-05-12T19:44:16.814Z,60.30
2023-05-12T19:46:47.101Z,60.30
2023-05-12T19:49:16.661Z,61.00
2023-05-12T19:51:48.857Z,60.20
2023-05-12T19:54:18.169Z,60.40
2023-05-12T19:56:47.358Z,60.30
2023-05-12T19:59:16.567Z,60.20
2023-05-12T20:01:45.950Z,60.10
2023-05-12T20:04:15.202Z,60.00
2023-05-12T20:06:44.483Z,60.10
2023-05-12T20:09:15.104Z,60.00
2023-05-12T20:11:44.460Z,60.60
2023-05-12T20:14:13.651Z,61.10
2023-05-12T20:16:42.909Z,61.20
2023-05-12T20:19:12.225Z,61.30
2023-05-12T20:21:41.727Z,61.30
2023-05-12T20:24:10.927Z,61.30
2023-05-12T20:26:42.113Z,61.20
2023-05-12T20:29:11.563Z,61.20
2023-05-12T20:31:40.908Z,61.20
2023-05-12T20:34:10.159Z,61.10
2023-05-12T20:36:39.372Z,61.10
2023-05-12T20:39:10.190Z,61.00
2023-05-12T20:41:42.865Z,61.00
2023-05-12T20:44:12.150Z,60.90
2023-05-12T20:46:41.516Z,61.00
2023-05-12T20:49:10.782Z,61.00
2023-05-12T20:51:40.044Z,60.80
2023-05-12T20:54:09.243Z,61.00
2023-05-12T20:56:38.441Z,61.30
2023-05-12T20:59:09.285Z,61.50
2023-05-12T21:01:39.116Z,61.30
2023-05-12T21:04:08.545Z,61.10
2023-05-12T21:06:37.989Z,60.80
2023-05-12T21:09:07.253Z,60.80
2023-05-12T21:11:36.665Z,60.70
2023-05-12T21:14:05.931Z,60.70
2023-05-12T21:16:36.781Z,60.60
2023-05-12T21:19:06.739Z,60.60
2023-05-12T21:21:36.237Z,60.60
2023-05-12T21:24:06.014Z,60.70
2023-05-12T21:26:35.189Z,60.50
2023-05-12T21:29:04.306Z,60.50
2023-05-12T21:31:35.298Z,60.40
2023-05-12T21:34:04.419Z,60.30
2023-05-12T21:36:33.871Z,60.30
2023-05-12T21:39:03.256Z,60.30
2023-05-12T21:41:32.532Z,60.30
2023-05-12T21:44:01.663Z,60.30
2023-05-12T21:46:31.210Z,60.20
2023-05-12T21:49:02.204Z,60.20
2023-05-12T21:51:33.232Z,60.20
2023-05-12T21:54:02.402Z,60.20
2023-05-12T21:56:31.570Z,60.30
2023-05-12T21:59:00.788Z,60.30
2023-05-12T22:01:30.943Z,60.30
2023-05-12T22:04:01.704Z,60.00
2023-05-12T22:06:30.972Z,59.90
2023-05-12T22:09:00.143Z,59.90
2023-05-12T22:11:29.418Z,59.90
2023-05-12T22:13:58.596Z,59.80
2023-05-12T22:16:38.526Z,59.90
2023-05-12T22:19:12.819Z,59.80
2023-05-12T22:21:42.158Z,59.90
2023-05-12T22:24:11.388Z,59.80
2023-05-12T22:26:41.436Z,59.80
2023-05-12T22:29:10.663Z,59.80
2023-05-12T22:31:40.056Z,59.80
2023-05-12T22:34:09.323Z,59.70
2023-05-12T22:36:40.122Z,59.80
2023-05-12T22:39:09.386Z,59.80
2023-05-12T22:41:38.720Z,59.80
2023-05-12T22:44:08.088Z,59.80
2023-05-12T22:46:37.237Z,59.80
2023-05-12T22:49:06.400Z,59.80
2023-05-12T22:51:35.818Z,59.80
2023-05-12T22:54:06.409Z,59.70
2023-05-12T22:56:35.912Z,59.70
2023-05-12T22:59:05.402Z,59.70
2023-05-12T23:01:34.670Z,59.60
2023-05-12T23:04:03.939Z,59.70
2023-05-12T23:06:33.155Z,59.60
2023-05-12T23:09:02.319Z,59.60
2023-05-12T23:11:33.058Z,59.70
2023-05-12T23:14:02.249Z,59.60
2023-05-12T23:16:31.482Z,59.60
2023-05-12T23:19:00.866Z,59.40
2023-05-12T23:21:30.144Z,59.50
2023-05-12T23:23:59.309Z,59.50
2023-05-12T23:26:28.517Z,59.50
2023-05-12T23:28:59.145Z,59.50
2023-05-12T23:31:28.739Z,59.50
2023-05-12T23:33:57.964Z,59.50
2023-05-12T23:36:27.277Z,59.40
2023-05-12T23:38:56.584Z,59.40
2023-05-12T23:41:26.186Z,59.40
2023-05-12T23:43:55.306Z,59.30
2023-05-12T23:46:26.083Z,59.30
2023-05-12T23:48:56.610Z,59.40
2023-05-12T23:51:26.148Z,59.30
2023-05-12T23:53:55.338Z,59.20
2023-05-12T23:56:24.645Z,59.10
2023-05-12T23:58:53.969Z,59.10
